Time,TemperatureF,DewpointF,PressureIn,WindDirection,WindDirectionDegrees,WindSpeedMPH,WindSpeedGustMPH,Humidity,HourlyPrecipIn,Conditions,Clouds,dailyrainin,SoftwareType,DateUTC
2013-09-03 00:01:00,67.3,66.7,31.01,SW,231,0.0,0.0,98,0.00,,---,0.00,VWS V14.01,2013-09-03 04:01:00,
2013-09-03 00:02:00,67.3,66.7,31.01,SW,231,0.0,0.0,98,0.00,,---,0.00,VWS V14.01,2013-09-03 04:02:00,
2013-09-03 00:07:00,67.1,66.5,31.01,SW,231,0.0,0.0,98,0.00,,---,0.00,VWS V14.01,2013-09-03 04:07:00,
2013-09-03 00:12:00,67.1,66.5,31.01,SW,231,0.0,0.0,98,0.00,,---,0.00,VWS V14.01,2013-09-03 04:12:00,
2013-09-03 00:17:00,67.1,66.5,31.01,SW,231,0.0,0.0,98,0.00,,---,0.00,VWS V14.01,2013-09-03 04:17:00,
2013-09-03 00:22:00,67.1,66.5,31.01,SW,231,0.0,0.0,98,0.00,,---,0.00,VWS V14.01,2013-09-03 04:22:00,
2013-09-03 00:27:00,67.1,66.5,31.01,SW,231,0.0,0.0,98,0.00,,---,0.00,VWS V14.01,2013-09-03 04:27:00,
2013-09-03 00:32:00,66.9,66.3,31.01,SW,231,0.0,0.0,98,0.00,,---,0.00,VWS V14.01,2013-09-03 04:32:00,
2013-09-03 00:37:00,66.9,66.3,31.01,SW,231,0.0,0.0,98,0.00,,---,0.00,VWS V14.01,2013-09-03 04:37:00,
2013-09-03 00:42:00,66.9,66.3,31.01,SW,231,0.0,0.0,98,0.00,,---,0.00,VWS V14.01,2013-09-03 04:42:00,
2013-09-03 00:47:00,66.7,66.2,31.01,SW,231,0.0,0.0,98,0.00,,---,0.00,VWS V14.01,2013-09-03 04:47:00,
2013-09-03 00:52:00,66.7,66.2,31.01,SW,231,0.0,0.0,98,0.00,,---,0.00,VWS V14.01,2013-09-03 04:52:00,
2013-09-03 00:57:00,66.7,66.2,31.01,SW,231,0.0,0.0,98,0.00,,---,0.00,VWS V14.01,2013-09-03 04:57:00,
2013-09-03 01:02:00,66.7,66.2,31.01,SW,231,0.0,0.0,98,0.00,,---,0.00,VWS V14.01,2013-09-03 05:02:00,
2013-09-03 01:07:00,66.6,66.0,31.01,SW,231,0.0,0.0,98,0.00,,---,0.00,VWS V14.01,2013-09-03 05:07:00,
2013-09-03 01:12:00,66.6,66.0,31.01,SW,231,0.0,0.0,98,0.00,,---,0.00,VWS V14.01,2013-09-03 05:12:00,
2013-09-03 01:17:00,66.4,65.8,31.01,SW,231,0.0,0.0,98,0.00,,---,0.00,VWS V14.01,2013-09-03 05:17:00,
2013-09-03 01:22:00,66.4,65.8,31.01,SW,231,0.0,0.0,98,0.00,,---,0.00,VWS V14.01,2013-09-03 05:22:00,
2013-09-03 01:27:00,66.4,65.8,31.01,SW,231,0.0,0.0,98,0.00,,---,0.00,VWS V14.01,2013-09-03 05:27:00,
2013-09-03 01:32:00,66.6,66.0,31.01,SW,231,0.0,0.0,98,0.00,,---,0.00,VWS V14.01,2013-09-03 05:32:00,
2013-09-03 01:37:00,66.4,65.8,31.01,SW,231,0.0,0.0,98,0.00,,---,0.00,VWS V14.01,2013-09-03 05:37:00,
2013-09-03 01:42:00,66.4,65.8,31.01,SW,231,0.0,0.0,98,0.00,,---,0.00,VWS V14.01,2013-09-03 05:42:00,
2013-09-03 01:47:00,66.2,65.6,31.01,SW,231,0.0,0.0,98,0.00,,---,0.00,VWS V14.01,2013-09-03 05:47:00,
2013-09-03 01:52:00,66.2,65.6,31.01,SW,231,0.0,0.0,98,0.00,,---,0.00,VWS V14.01,2013-09-03 05:52:00,
2013-09-03 01:57:00,66.2,65.6,31.01,SW,231,0.0,0.0,98,0.00,,---,0.00,VWS V14.01,2013-09-03 05:57:00,
2013-09-03 02:02:00,66.4,65.8,31.01,SW,231,0.0,0.0,98,0.00,,---,0.00,VWS V14.01,2013-09-03 06:02:00,
2013-09-03 02:07:00,66.2,65.6,31.01,SW,231,0.0,0.0,98,0.00,,---,0.00,VWS V14.01,2013-09-03 06:07:00,
2013-09-03 02:12:00,66.2,65.6,31.01,SW,231,0.0,0.0,98,0.00,,---,0.00,VWS V14.01,2013-09-03 06:12:00,
2013-09-03 02:17:00,66.2,65.6,31.01,SW,231,0.0,0.0,98,0.00,,---,0.00,VWS V14.01,2013-09-03 06:17:00,
2013-09-03 02:22:00,66.2,65.6,31.01,SW,231,0.0,0.0,98,0.00,,---,0.00,VWS V14.01,2013-09-03 06:22:00,
2013-09-03 02:26:00,66.0,65.4,31.01,SW,231,0.0,0.0,98,0.00,,---,0.00,VWS V14.01,2013-09-03 06:26:00,
2013-09-03 02:31:00,66.0,65.4,31.01,SW,231,0.0,0.0,98,0.00,,---,0.00,VWS V14.01,2013-09-03 06:31:00,
2013-09-03 02:36:00,65.8,65.3,31.01,SW,231,0.0,0.0,98,0.00,,---,0.00,VWS V14.01,2013-09-03 06:36:00,
2013-09-03 02:41:00,65.8,65.3,31.01,SW,231,0.0,0.0,98,0.00,,---,0.00,VWS V14.01,2013-09-03 06:41:00,
2013-09-03 02:46:00,65.8,65.3,31.01,SW,231,0.0,0.0,98,0.00,,---,0.00,VWS V14.01,2013-09-03 06:46:00,
2013-09-03 02:51:00,65.8,65.3,31.01,SW,231,0.0,0.0,98,0.00,,---,0.00,VWS V14.01,2013-09-03 06:51:00,
2013-09-03 02:56:00,65.8,65.3,31.01,SW,231,0.0,0.0,98,0.00,,---,0.00,VWS V14.01,2013-09-03 06:56:00,
2013-09-03 03:01:00,65.8,65.3,31.01,SW,231,0.0,0.0,98,0.00,,---,0.00,VWS V14.01,2013-09-03 07:01:00,
2013-09-03 03:06:00,66.0,65.4,31.01,SW,231,0.0,0.0,98,0.00,,---,0.00,VWS V14.01,2013-09-03 07:06:00,
2013-09-03 03:12:00,66.0,65.4,31.01,SW,231,0.0,0.0,98,0.00,,---,0.00,VWS V14.01,2013-09-03 07:12:00,
2013-09-03 03:16:00,65.8,65.3,31.01,SW,231,0.0,0.0,98,0.00,,---,0.00,VWS V14.01,2013-09-03 07:16:00,
2013-09-03 03:21:00,65.7,65.1,31.01,SW,231,0.0,0.0,98,0.00,,---,0.00,VWS V14.01,2013-09-03 07:21:00,
2013-09-03 03:26:00,65.5,64.9,31.01,SW,231,0.0,0.0,98,0.00,,---,0.00,VWS V14.01,2013-09-03 07:26:00,
2013-09-03 03:31:00,65.3,64.7,31.01,SW,231,0.0,0.0,98,0.00,,---,0.00,VWS V14.01,2013-09-03 07:31:00,
2013-09-03 03:36:00,65.3,64.7,31.01,SW,231,0.0,0.0,98,0.00,,---,0.00,VWS V14.01,2013-09-03 07:36:00,
2013-09-03 03:41:00,65.5,64.9,31.01,SW,231,0.0,0.0,98,0.00,,---,0.00,VWS V14.01,2013-09-03 07:41:00,
2013-09-03 03:46:00,65.3,64.7,31.01,SW,231,0.0,0.0,98,0.00,,---,0.00,VWS V14.01,2013-09-03 07:46:00,
2013-09-03 03:51:00,65.5,64.9,31.01,SW,231,0.0,0.0,98,0.00,,---,0.00,VWS V14.01,2013-09-03 07:51:00,
2013-09-03 03:56:00,65.7,65.1,31.01,SW,231,0.0,2.2,98,0.00,,---,0.00,VWS V14.01,2013-09-03 07:56:00,
2013-09-03 04:01:00,65.8,65.3,31.01,SW,231,0.0,0.0,98,0.00,,---,0.00,VWS V14.01,2013-09-03 08:01:00,
2013-09-03 04:06:00,66.0,65.4,31.01,SW,231,0.0,0.0,98,0.00,,---,0.00,VWS V14.01,2013-09-03 08:06:00,
2013-09-03 04:11:00,66.0,65.4,31.01,SW,231,0.0,0.0,98,0.00,,---,0.00,VWS V14.01,2013-09-03 08:11:00,
2013-09-03 04:16:00,66.2,65.6,31.01,SW,231,0.0,0.0,98,0.00,,---,0.00,VWS V14.01,2013-09-03 08:16:00,
2013-09-03 04:21:00,66.2,65.6,31.01,SW,231,0.0,0.0,98,0.00,,---,0.00,VWS V14.01,2013-09-03 08:21:00,
2013-09-03 04:26:00,66.4,65.8,31.01,SW,231,0.0,0.0,98,0.00,,---,0.00,VWS V14.01,2013-09-03 08:26:00,
2013-09-03 04:31:00,66.6,66.0,31.01,SW,231,0.0,0.0,98,0.00,,---,0.00,VWS V14.01,2013-09-03 08:31:00,
2013-09-03 04:36:00,66.6,66.0,31.01,SW,221,2.7,2.7,98,0.00,,---,0.00,VWS V14.01,2013-09-03 08:36:00,
2013-09-03 04:41:00,66.6,66.0,31.01,West,266,0.0,0.0,98,0.00,,---,0.00,VWS V14.01,2013-09-03 08:41:00,
2013-09-03 04:46:00,66.6,66.0,31.01,ESE,113,2.7,2.7,98,0.00,,---,0.00,VWS V14.01,2013-09-03 08:46:00,
2013-09-03 04:51:00,66.7,66.2,31.01,ESE,119,2.7,5.8,98,0.00,,---,0.00,VWS V14.01,2013-09-03 08:51:00,
2013-09-03 04:56:00,66.4,65.8,31.01,ESE,108,7.6,7.6,98,0.00,,---,0.00,VWS V14.01,2013-09-03 08:56:00,
2013-09-03 05:01:00,66.2,65.6,31.01,ESE,122,5.4,5.4,98,0.00,,---,0.00,VWS V14.01,2013-09-03 09:01:00,
2013-09-03 05:06:00,65.8,65.3,31.01,NNW,337,2.7,3.6,98,0.00,,---,0.00,VWS V14.01,2013-09-03 09:06:00,
2013-09-03 05:11:00,65.5,64.9,31.01,SW,224,4.0,4.0,98,0.00,,---,0.00,VWS V14.01,2013-09-03 09:11:00,
2013-09-03 05:16:00,65.1,64.5,31.01,NE,50,0.0,4.0,98,0.00,,---,0.00,VWS V14.01,2013-09-03 09:16:00,
2013-09-03 05:21:00,64.8,64.2,31.01,NE,50,3.1,3.1,98,0.00,,---,0.00,VWS V14.01,2013-09-03 09:21:00,
2013-09-03 05:26:00,64.6,64.0,31.01,WNW,290,3.6,4.0,98,0.00,,---,0.00,VWS V14.01,2013-09-03 09:26:00,
2013-09-03 05:31:00,64.4,63.8,31.01,WNW,290,0.0,2.7,98,0.00,,---,0.00,VWS V14.01,2013-09-03 09:31:00,
2013-09-03 05:36:00,64.0,63.5,31.01,WNW,290,0.0,0.0,98,0.00,,---,0.00,VWS V14.01,2013-09-03 09:36:00,
2013-09-03 05:41:00,63.9,63.3,31.01,WNW,290,0.0,0.0,98,0.00,,---,0.00,VWS V14.01,2013-09-03 09:41:00,
2013-09-03 05:46:00,63.7,63.1,31.01,NW,304,0.0,2.7,98,0.00,,---,0.00,VWS V14.01,2013-09-03 09:46:00,
2013-09-03 05:51:00,63.7,63.1,31.01,NW,304,0.0,2.2,98,0.00,,---,0.00,VWS V14.01,2013-09-03 09:51:00,
2013-09-03 05:56:00,63.9,63.3,31.01,WNW,300,3.1,3.6,98,0.00,,---,0.00,VWS V14.01,2013-09-03 09:56:00,
2013-09-03 06:01:00,63.9,63.3,31.01,WNW,297,2.7,3.1,98,0.00,,---,0.00,VWS V14.01,2013-09-03 10:01:00,
2013-09-03 06:06:00,63.9,63.3,31.01,SSW,212,2.2,2.7,98,0.04,,---,0.04,VWS V14.01,2013-09-03 10:06:00,
2013-09-03 06:11:00,63.7,63.1,31.01,SW,226,0.0,0.0,98,0.04,,---,0.04,VWS V14.01,2013-09-03 10:11:00,
2013-09-03 06:16:00,63.7,63.1,31.01,SSE,153,2.7,3.6,98,0.04,,---,0.00,VWS V14.01,2013-09-03 10:16:00,
2013-09-03 06:21:00,63.9,63.3,31.01,WSW,248,2.2,2.7,98,0.04,,---,0.04,VWS V14.01,2013-09-03 10:21:00,
2013-09-03 06:26:00,64.0,63.5,31.01,NW,318,3.1,4.0,98,0.04,,---,0.04,VWS V14.01,2013-09-03 10:26:00,
2013-09-03 06:31:00,64.2,63.7,31.01,NW,315,3.1,3.6,98,0.04,,---,0.04,VWS V14.01,2013-09-03 10:31:00,
2013-09-03 06:36:00,64.0,63.5,31.01,SW,220,0.0,0.0,98,0.04,,---,0.04,VWS V14.01,2013-09-03 10:36:00,
2013-09-03 06:41:00,64.0,63.5,31.01,NE,39,2.2,3.1,98,0.04,,---,0.04,VWS V14.01,2013-09-03 10:41:00,
2013-09-03 06:46:00,63.9,63.3,31.01,NE,39,2.2,2.7,98,0.04,,---,0.04,VWS V14.01,2013-09-03 10:46:00,
2013-09-03 06:51:00,63.7,63.1,31.01,NE,39,0.0,2.2,98,0.04,,---,0.04,VWS V14.01,2013-09-03 10:51:00,
2013-09-03 06:56:00,63.7,63.1,31.01,NE,39,0.0,0.0,98,0.04,,---,0.04,VWS V14.01,2013-09-03 10:56:00,
2013-09-03 07:01:00,63.7,63.1,31.01,NE,39,0.0,0.0,98,0.04,,---,0.04,VWS V14.01,2013-09-03 11:01:00,
2013-09-03 07:06:00,63.5,62.9,31.01,NE,39,0.0,0.0,98,0.00,,---,0.04,VWS V14.01,2013-09-03 11:06:00,
2013-09-03 07:11:00,63.5,62.9,31.01,NE,39,0.0,0.0,98,0.00,,---,0.04,VWS V14.01,2013-09-03 11:11:00,
2013-09-03 07:16:00,63.5,62.9,31.01,WSW,243,0.0,0.0,98,0.00,,---,0.04,VWS V14.01,2013-09-03 11:16:00,
2013-09-03 07:21:00,63.5,62.9,31.01,WSW,243,2.7,2.7,98,0.00,,---,0.04,VWS V14.01,2013-09-03 11:21:00,
2013-09-03 07:26:00,63.5,62.9,31.01,WSW,243,0.0,0.0,98,0.00,,---,0.04,VWS V14.01,2013-09-03 11:26:00,
2013-09-03 07:31:00,63.5,62.9,31.01,WSW,243,0.0,0.0,98,0.00,,---,0.04,VWS V14.01,2013-09-03 11:31:00,
2013-09-03 07:36:00,63.3,62.8,31.01,WSW,243,2.7,3.1,98,0.00,,---,0.04,VWS V14.01,2013-09-03 11:36:00,
2013-09-03 07:41:00,63.1,62.6,31.01,SW,236,2.7,2.7,98,0.00,,---,0.04,VWS V14.01,2013-09-03 11:41:00,
2013-09-03 07:46:00,63.1,62.6,31.01,SW,224,3.1,4.0,98,0.00,,---,0.04,VWS V14.01,2013-09-03 11:46:00,
2013-09-03 07:51:00,63.1,62.6,31.01,NW,308,0.0,0.0,98,0.00,,---,0.04,VWS V14.01,2013-09-03 11:51:00,
2013-09-03 07:56:00,63.0,62.4,31.01,North,357,0.0,0.0,98,0.00,,---,0.04,VWS V14.01,2013-09-03 11:56:00,
2013-09-03 08:01:00,63.0,62.4,31.01,North,357,0.0,2.7,98,0.00,,---,0.04,VWS V14.01,2013-09-03 12:01:00,
2013-09-03 08:06:00,62.8,62.2,31.01,North,357,3.1,3.1,98,0.00,,---,0.04,VWS V14.01,2013-09-03 12:06:00,
2013-09-03 08:11:00,62.8,62.2,31.01,SSE,149,0.0,0.0,98,0.00,,---,0.04,VWS V14.01,2013-09-03 12:11:00,
2013-09-03 08:16:00,62.8,62.2,31.01,West,259,0.0,2.2,98,0.00,,---,0.00,VWS V14.01,2013-09-03 12:16:00,
2013-09-03 08:21:00,62.8,62.2,31.01,West,259,0.0,0.0,98,0.00,,---,0.04,VWS V14.01,2013-09-03 12:21:00,
2013-09-03 08:26:00,62.8,62.2,31.01,SW,216,0.0,0.0,98,0.00,,---,0.04,VWS V14.01,2013-09-03 12:26:00,
2013-09-03 08:31:00,63.0,62.4,31.01,SW,216,0.0,0.0,98,0.00,,---,0.04,VWS V14.01,2013-09-03 12:31:00,
2013-09-03 08:36:00,63.1,62.6,31.01,SW,216,0.0,0.0,98,0.00,,---,0.04,VWS V14.01,2013-09-03 12:36:00,
2013-09-03 08:41:00,63.1,62.6,31.01,SW,216,0.0,0.0,98,0.00,,---,0.04,VWS V14.01,2013-09-03 12:41:00,
2013-09-03 08:46:00,63.1,62.6,31.01,SW,216,0.0,0.0,98,0.00,,---,0.04,VWS V14.01,2013-09-03 12:46:00,
2013-09-03 08:51:00,63.5,62.9,31.01,SW,216,0.0,0.0,98,0.00,,---,0.04,VWS V14.01,2013-09-03 12:51:00,
2013-09-03 08:56:00,63.9,63.3,31.01,SW,216,0.0,0.0,98,0.00,,---,0.04,VWS V14.01,2013-09-03 12:56:00,
2013-09-03 09:01:00,64.0,63.5,31.01,SW,216,0.0,0.0,98,0.00,,---,0.04,VWS V14.01,2013-09-03 13:01:00,
2013-09-03 09:06:00,64.4,63.8,31.01,SW,216,0.0,0.0,98,0.00,,---,0.00,VWS V14.01,2013-09-03 13:06:00,
2013-09-03 09:11:00,64.8,64.2,31.01,ESE,112,3.6,3.6,98,0.00,,---,0.04,VWS V14.01,2013-09-03 13:11:00,
2013-09-03 09:16:00,65.1,64.5,31.01,ESE,112,0.0,0.0,98,0.00,,---,0.04,VWS V14.01,2013-09-03 13:16:00,
2013-09-03 09:21:00,65.7,65.1,31.01,ESE,112,0.0,0.0,98,0.00,,---,0.04,VWS V14.01,2013-09-03 13:21:00,
2013-09-03 09:26:00,66.7,66.2,31.01,ESE,112,0.0,0.0,98,0.00,,---,0.04,VWS V14.01,2013-09-03 13:26:00,
2013-09-03 09:31:00,67.1,66.5,31.01,East,85,0.0,0.0,98,0.00,,---,0.04,VWS V14.01,2013-09-03 13:31:00,
2013-09-03 09:36:00,67.3,66.7,31.01,ESE,104,0.0,2.7,98,0.00,,---,0.04,VWS V14.01,2013-09-03 13:36:00,
2013-09-03 09:41:00,67.5,66.9,31.01,SW,233,0.0,0.0,98,0.00,,---,0.04,VWS V14.01,2013-09-03 13:41:00,
2013-09-03 09:46:00,67.6,67.1,31.01,WSW,240,2.2,2.7,98,0.00,,---,0.04,VWS V14.01,2013-09-03 13:46:00,
2013-09-03 09:51:00,67.8,67.2,31.01,SE,134,3.6,3.6,98,0.00,,---,0.04,VWS V14.01,2013-09-03 13:51:00,
2013-09-03 09:56:00,68.2,67.6,31.01,ESE,123,2.7,4.0,98,0.00,,---,0.04,VWS V14.01,2013-09-03 13:56:00,
2013-09-03 10:01:00,68.4,67.8,31.01,ESE,123,2.7,2.7,98,0.00,,---,0.04,VWS V14.01,2013-09-03 14:01:00,
2013-09-03 10:06:00,68.5,68.0,31.01,ESE,123,3.1,3.6,98,0.00,,---,0.04,VWS V14.01,2013-09-03 14:06:00,
2013-09-03 10:11:00,68.5,68.0,31.01,ESE,123,2.7,3.1,98,0.00,,---,0.04,VWS V14.01,2013-09-03 14:11:00,
2013-09-03 10:16:00,69.1,68.5,31.01,ESE,123,3.1,3.1,98,0.00,,---,0.04,VWS V14.01,2013-09-03 14:16:00,
2013-09-03 10:21:00,69.4,68.8,31.01,ESE,122,0.0,3.6,98,0.00,,---,0.04,VWS V14.01,2013-09-03 14:21:00,
2013-09-03 10:26:00,69.3,68.7,31.01,ESE,122,0.0,2.7,98,0.00,,---,0.04,VWS V14.01,2013-09-03 14:26:00,
2013-09-03 10:31:00,69.4,68.8,31.01,ESE,122,0.0,0.0,98,0.00,,---,0.04,VWS V14.01,2013-09-03 14:31:00,
2013-09-03 10:36:00,70.2,69.6,31.01,ESE,122,0.0,4.0,98,0.00,,---,0.04,VWS V14.01,2013-09-03 14:36:00,
2013-09-03 10:41:00,70.5,69.6,31.01,ESE,116,0.0,0.0,97,0.00,,---,0.04,VWS V14.01,2013-09-03 14:41:00,
2013-09-03 10:46:00,70.9,69.7,31.01,South,179,2.7,2.7,96,0.00,,---,0.00,VWS V14.01,2013-09-03 14:46:00,
2013-09-03 10:51:00,71.2,69.1,31.01,East,100,2.2,4.0,93,0.00,,---,0.04,VWS V14.01,2013-09-03 14:51:00,
2013-09-03 10:56:00,71.6,68.5,31.01,SE,144,2.2,2.2,90,0.00,,---,0.04,VWS V14.01,2013-09-03 14:56:00,
2013-09-03 11:01:00,71.8,68.0,31.01,West,278,0.0,0.0,88,0.00,,---,0.04,VWS V14.01,2013-09-03 15:01:00,
2013-09-03 11:06:00,72.1,68.1,31.01,WSW,240,3.1,3.1,87,0.00,,---,0.04,VWS V14.01,2013-09-03 15:06:00,
2013-09-03 11:11:00,72.5,67.7,31.01,ENE,65,4.9,6.3,85,0.00,,---,0.04,VWS V14.01,2013-09-03 15:11:00,
2013-09-03 11:16:00,72.7,66.9,31.01,ENE,59,3.6,6.3,82,0.00,,---,0.04,VWS V14.01,2013-09-03 15:16:00,
2013-09-03 11:21:00,72.9,68.1,31.01,SSE,149,3.6,4.0,85,0.00,,---,0.04,VWS V14.01,2013-09-03 15:21:00,
2013-09-03 11:26:00,73.2,68.1,31.01,West,268,2.7,4.0,84,0.00,,---,0.04,VWS V14.01,2013-09-03 15:26:00,
2013-09-03 11:31:00,73.6,68.1,31.01,ESE,103,3.1,3.6,83,0.00,,---,0.04,VWS V14.01,2013-09-03 15:31:00,
2013-09-03 11:36:00,73.9,67.8,31.01,SW,214,3.1,3.1,81,0.00,,---,0.04,VWS V14.01,2013-09-03 15:36:00,
2013-09-03 11:41:00,74.3,68.1,31.01,ENE,71,2.7,3.6,81,0.00,,---,0.04,VWS V14.01,2013-09-03 15:41:00,
2013-09-03 11:46:00,74.7,68.4,31.01,ESE,105,3.1,4.0,81,0.00,,---,0.04,VWS V14.01,2013-09-03 15:46:00,
2013-09-03 11:51:00,75.0,68.8,31.01,WSW,245,2.2,2.7,81,0.00,,---,0.04,VWS V14.01,2013-09-03 15:51:00,
2013-09-03 11:56:00,75.4,68.4,31.01,South,181,2.7,3.1,79,0.00,,---,0.04,VWS V14.01,2013-09-03 15:56:00,
2013-09-03 12:01:00,75.7,68.0,31.01,ENE,65,4.9,4.9,77,0.00,,---,0.04,VWS V14.01,2013-09-03 16:01:00,
2013-09-03 12:06:00,76.1,68.8,31.01,East,101,0.0,4.0,78,0.00,,---,0.04,VWS V14.01,2013-09-03 16:06:00,
2013-09-03 12:11:00,76.6,69.3,31.01,NNE,29,2.7,3.1,78,0.00,,---,0.04,VWS V14.01,2013-09-03 16:11:00,
2013-09-03 12:16:00,77.0,69.6,31.01,ESE,120,0.0,2.7,78,0.00,,---,0.04,VWS V14.01,2013-09-03 16:16:00,
2013-09-03 12:21:00,77.0,68.5,31.01,SW,217,3.1,3.1,75,0.00,,---,0.04,VWS V14.01,2013-09-03 16:21:00,
2013-09-03 12:26:00,77.4,68.4,31.01,NNE,16,2.2,2.7,74,0.00,,---,0.04,VWS V14.01,2013-09-03 16:26:00,
2013-09-03 12:31:00,77.4,69.2,31.01,SSE,163,2.2,2.7,76,0.00,,---,0.04,VWS V14.01,2013-09-03 16:31:00,
2013-09-03 12:36:00,77.5,68.2,31.01,West,271,2.2,2.2,73,0.00,,---,0.04,VWS V14.01,2013-09-03 16:36:00,
2013-09-03 12:41:00,77.5,68.6,31.01,ESE,123,2.2,3.6,74,0.00,,---,0.04,VWS V14.01,2013-09-03 16:41:00,
2013-09-03 12:46:00,78.3,70.1,31.01,East,82,3.1,3.6,76,0.00,,---,0.04,VWS V14.01,2013-09-03 16:46:00,
2013-09-03 12:51:00,78.3,68.9,31.01,South,171,2.7,3.1,73,0.00,,---,0.04,VWS V14.01,2013-09-03 16:51:00,
2013-09-03 12:56:00,78.3,68.9,31.01,West,271,0.0,0.0,73,0.00,,---,0.04,VWS V14.01,2013-09-03 16:56:00,
2013-09-03 13:01:00,78.8,69.8,31.01,ESE,106,2.2,3.1,74,0.00,,---,0.04,VWS V14.01,2013-09-03 17:01:00,
2013-09-03 13:06:00,79.0,70.8,31.01,SSW,202,2.2,4.0,76,0.00,,---,0.00,VWS V14.01,2013-09-03 17:06:00,
2013-09-03 13:11:00,79.0,70.4,31.01,South,190,3.1,3.1,75,0.00,,---,0.04,VWS V14.01,2013-09-03 17:11:00,
2013-09-03 13:16:00,78.4,69.9,31.01,SE,129,0.0,0.0,75,0.00,,---,0.04,VWS V14.01,2013-09-03 17:16:00,
2013-09-03 13:21:00,78.8,70.2,31.01,ESE,123,3.6,3.6,75,0.00,,---,0.04,VWS V14.01,2013-09-03 17:21:00,
2013-09-03 13:26:00,79.5,70.1,31.01,SE,136,3.1,3.1,73,0.00,,---,0.04,VWS V14.01,2013-09-03 17:26:00,
2013-09-03 13:31:00,80.1,70.6,31.01,West,262,2.7,2.7,73,0.00,,---,0.04,VWS V14.01,2013-09-03 17:31:00,
2013-09-03 13:36:00,79.9,69.6,31.01,SW,236,3.6,3.6,71,0.00,,---,0.04,VWS V14.01,2013-09-03 17:36:00,
2013-09-03 13:41:00,79.2,68.9,31.01,SW,236,0.0,2.7,71,0.00,,---,0.00,VWS V14.01,2013-09-03 17:41:00,
2013-09-03 13:46:00,79.2,69.8,31.01,SE,143,3.1,3.1,73,0.00,,---,0.04,VWS V14.01,2013-09-03 17:46:00,
2013-09-03 13:51:00,78.6,69.2,31.01,West,266,0.0,0.0,73,0.00,,---,0.04,VWS V14.01,2013-09-03 17:51:00,
2013-09-03 13:56:00,79.5,69.3,31.01,ENE,74,3.1,3.1,71,0.00,,---,0.04,VWS V14.01,2013-09-03 17:56:00,
2013-09-03 14:01:00,79.9,69.2,31.01,East,84,4.0,4.0,70,0.00,,---,0.04,VWS V14.01,2013-09-03 18:01:00,
2013-09-03 14:06:00,80.8,70.1,31.01,ESE,118,0.0,2.7,70,0.00,,---,0.04,VWS V14.01,2013-09-03 18:06:00,
2013-09-03 14:11:00,80.1,69.8,31.01,ENE,73,2.7,3.6,71,0.00,,---,0.04,VWS V14.01,2013-09-03 18:11:00,
2013-09-03 14:16:00,79.9,70.1,31.01,ENE,74,2.7,2.7,72,0.00,,---,0.04,VWS V14.01,2013-09-03 18:16:00,
2013-09-03 14:21:00,79.5,69.7,31.01,ENE,75,3.6,3.6,72,0.00,,---,0.04,VWS V14.01,2013-09-03 18:21:00,
2013-09-03 14:26:00,79.5,70.1,31.01,ENE,76,0.0,0.0,73,0.00,,---,0.04,VWS V14.01,2013-09-03 18:26:00,
2013-09-03 14:31:00,79.5,69.7,31.01,East,80,0.0,3.1,72,0.00,,---,0.04,VWS V14.01,2013-09-03 18:31:00,
2013-09-03 14:36:00,79.7,69.5,31.01,NW,322,2.2,2.2,71,0.00,,---,0.04,VWS V14.01,2013-09-03 18:36:00,
2013-09-03 14:41:00,79.7,70.7,31.01,ESE,123,4.5,4.5,74,0.00,,---,0.04,VWS V14.01,2013-09-03 18:41:00,
2013-09-03 14:46:00,79.9,70.9,31.01,East,101,4.9,4.9,74,0.00,,---,0.04,VWS V14.01,2013-09-03 18:46:00,
2013-09-03 14:51:00,79.9,70.5,31.01,SW,217,3.1,3.1,73,0.00,,---,0.04,VWS V14.01,2013-09-03 18:51:00,
2013-09-03 14:56:00,80.2,70.0,31.01,ESE,123,4.0,4.0,71,0.00,,---,0.04,VWS V14.01,2013-09-03 18:56:00,
2013-09-03 15:01:00,80.2,69.6,31.01,ESE,104,0.0,0.0,70,0.00,,---,0.04,VWS V14.01,2013-09-03 19:01:00,
2013-09-03 15:06:00,79.9,68.8,31.01,West,261,3.1,3.1,69,0.00,,---,0.04,VWS V14.01,2013-09-03 19:06:00,
2013-09-03 15:11:00,79.2,68.1,31.01,WSW,238,2.2,2.2,69,0.00,,---,0.04,VWS V14.01,2013-09-03 19:11:00,
2013-09-03 15:16:00,79.7,68.6,31.01,SW,224,3.6,4.5,69,0.00,,---,0.00,VWS V14.01,2013-09-03 19:16:00,
2013-09-03 15:21:00,79.7,69.1,31.01,SE,127,0.0,2.2,70,0.00,,---,0.04,VWS V14.01,2013-09-03 19:21:00,
2013-09-03 15:26:00,79.5,69.3,31.01,SE,131,0.0,0.0,71,0.00,,---,0.04,VWS V14.01,2013-09-03 19:26:00,
2013-09-03 15:31:00,79.5,68.5,31.01,ESE,118,4.0,4.9,69,0.00,,---,0.04,VWS V14.01,2013-09-03 19:31:00,
2013-09-03 15:36:00,79.7,68.6,31.01,SW,221,4.0,4.0,69,0.00,,---,0.04,VWS V14.01,2013-09-03 19:36:00,
2013-09-03 15:41:00,80.1,68.6,31.01,SE,144,2.7,2.7,68,0.00,,---,0.04,VWS V14.01,2013-09-03 19:41:00,
2013-09-03 15:46:00,80.1,68.6,31.01,SSE,166,2.2,3.6,68,0.00,,---,0.04,VWS V14.01,2013-09-03 19:46:00,
2013-09-03 15:51:00,79.9,68.4,31.01,South,178,3.1,3.1,68,0.00,,---,0.04,VWS V14.01,2013-09-03 19:51:00,
2013-09-03 15:56:00,79.7,68.2,31.01,ESE,115,2.2,2.2,68,0.00,,---,0.04,VWS V14.01,2013-09-03 19:56:00,
2013-09-03 16:01:00,79.5,68.0,31.01,SE,124,3.6,3.6,68,0.00,,---,0.04,VWS V14.01,2013-09-03 20:01:00,
2013-09-03 16:06:00,79.5,67.6,31.01,ESE,112,2.2,2.2,67,0.00,,---,0.04,VWS V14.01,2013-09-03 20:06:00,
2013-09-03 16:11:00,79.7,67.8,22.41,SSE,161,4.0,4.0,67,0.00,,---,0.04,VWS V14.01,2013-09-03 20:11:00,
2013-09-03 16:16:00,79.7,68.2,22.41,East,87,3.6,3.6,68,0.00,,---,0.04,VWS V14.01,2013-09-03 20:16:00,
2013-09-03 16:21:00,79.5,67.2,22.41,East,97,2.2,2.2,66,0.00,,---,0.04,VWS V14.01,2013-09-03 20:21:00,
2013-09-03 16:26:00,79.5,67.6,20.46,WSW,244,3.1,3.1,67,0.00,,---,0.04,VWS V14.01,2013-09-03 20:26:00,
2013-09-03 16:31:00,79.3,67.9,20.46,SE,124,2.7,3.1,68,0.00,,---,0.04,VWS V14.01,2013-09-03 20:31:00,
2013-09-03 16:36:00,79.2,68.1,20.46,ESE,104,4.0,4.0,69,0.00,,---,0.04,VWS V14.01,2013-09-03 20:36:00,
2013-09-03 16:41:00,79.2,67.7,17.72,ESE,105,0.0,0.0,68,0.00,,---,0.04,VWS V14.01,2013-09-03 20:41:00,
2013-09-03 16:46:00,79.0,67.9,17.72,SE,126,2.7,3.6,69,0.00,,---,0.04,VWS V14.01,2013-09-03 20:46:00,
2013-09-03 16:51:00,78.8,67.8,17.72,East,101,3.1,3.1,69,0.00,,---,0.04,VWS V14.01,2013-09-03 20:51:00,
2013-09-03 16:56:00,78.6,68.0,17.72,South,179,2.7,3.6,70,0.00,,---,0.04,VWS V14.01,2013-09-03 20:56:00,
2013-09-03 17:01:00,78.4,67.8,17.72,ESE,115,2.7,2.7,70,0.00,,---,0.04,VWS V14.01,2013-09-03 21:01:00,
2013-09-03 17:06:00,78.3,67.3,17.72,NE,34,3.1,3.1,69,0.00,,---,0.04,VWS V14.01,2013-09-03 21:06:00,
2013-09-03 17:11:00,78.1,67.1,17.72,East,85,0.0,2.7,69,0.00,,---,0.04,VWS V14.01,2013-09-03 21:11:00,
2013-09-03 17:16:00,77.9,66.5,17.72,North,0,3.1,5.4,68,0.00,,---,0.04,VWS V14.01,2013-09-03 21:16:00,
2013-09-03 17:21:00,77.5,65.3,17.72,East,86,2.2,3.1,66,0.00,,---,0.04,VWS V14.01,2013-09-03 21:21:00,
2013-09-03 17:26:00,77.5,65.7,28.56,NNE,28,2.2,2.2,67,0.00,,---,0.04,VWS V14.01,2013-09-03 21:26:00,
2013-09-03 17:31:00,77.2,65.8,28.56,ESE,105,3.6,3.6,68,0.00,,---,0.04,VWS V14.01,2013-09-03 21:31:00,
2013-09-03 17:36:00,76.8,67.1,28.56,ESE,106,2.2,2.7,72,0.00,,---,0.04,VWS V14.01,2013-09-03 21:36:00,
2013-09-03 17:41:00,76.8,66.3,18.10,ESE,106,0.0,2.2,70,0.00,,---,0.00,VWS V14.01,2013-09-03 21:41:00,
2013-09-03 17:46:00,76.5,66.4,18.10,ESE,122,2.7,3.1,71,0.00,,---,0.04,VWS V14.01,2013-09-03 21:46:00,
2013-09-03 17:51:00,76.1,67.2,18.10,ESE,120,0.0,2.2,74,0.00,,---,0.04,VWS V14.01,2013-09-03 21:51:00,
2013-09-03 17:56:00,75.7,67.3,17.72,ESE,120,0.0,0.0,75,0.00,,---,0.04,VWS V14.01,2013-09-03 21:56:00,
2013-09-03 18:01:00,75.6,67.1,17.72,ESE,110,0.0,0.0,75,0.00,,---,0.04,VWS V14.01,2013-09-03 22:01:00,
2013-09-03 18:06:00,75.2,67.5,17.72,ESE,110,0.0,2.2,77,0.00,,---,0.04,VWS V14.01,2013-09-03 22:06:00,
2013-09-03 18:11:00,74.8,67.5,18.22,ESE,110,0.0,0.0,78,0.00,,---,0.04,VWS V14.01,2013-09-03 22:11:00,
2013-09-03 18:16:00,74.5,66.8,18.22,ESE,110,0.0,0.0,77,0.00,,---,0.04,VWS V14.01,2013-09-03 22:16:00,
2013-09-03 18:21:00,74.3,67.0,18.22,North,6,0.0,0.0,78,0.00,,---,0.04,VWS V14.01,2013-09-03 22:21:00,
2013-09-03 18:26:00,73.9,66.7,19.11,NNE,18,0.0,2.2,78,0.00,,---,0.04,VWS V14.01,2013-09-03 22:26:00,
2013-09-03 18:31:00,73.8,66.5,19.11,ENE,78,3.1,3.1,78,0.00,,---,0.04,VWS V14.01,2013-09-03 22:31:00,
2013-09-03 18:36:00,73.6,66.3,19.11,East,84,0.0,2.2,78,0.00,,---,0.04,VWS V14.01,2013-09-03 22:36:00,
2013-09-03 18:41:00,73.2,66.7,17.72,East,84,0.0,0.0,80,0.00,,---,0.04,VWS V14.01,2013-09-03 22:41:00,
2013-09-03 18:46:00,72.9,66.3,17.72,East,84,0.0,0.0,80,0.00,,---,0.04,VWS V14.01,2013-09-03 22:46:00,
2013-09-03 18:51:00,72.5,66.3,17.72,East,84,0.0,0.0,81,0.00,,---,0.04,VWS V14.01,2013-09-03 22:51:00,
2013-09-03 18:56:00,72.1,66.7,18.81,East,84,2.2,2.7,83,0.00,,---,0.04,VWS V14.01,2013-09-03 22:56:00,
2013-09-03 19:01:00,72.0,66.9,18.81,East,84,0.0,0.0,84,0.00,,---,0.04,VWS V14.01,2013-09-03 23:01:00,
2013-09-03 19:06:00,71.6,67.2,18.81,East,84,0.0,0.0,86,0.00,,---,0.04,VWS V14.01,2013-09-03 23:06:00,
2013-09-03 19:11:00,71.2,67.2,17.72,East,84,0.0,0.0,87,0.00,,---,0.04,VWS V14.01,2013-09-03 23:11:00,
2013-09-03 19:16:00,70.9,67.2,17.72,East,84,0.0,0.0,88,0.00,,---,0.04,VWS V14.01,2013-09-03 23:16:00,
2013-09-03 19:21:00,70.5,66.8,17.72,East,84,0.0,0.0,88,0.00,,---,0.04,VWS V14.01,2013-09-03 23:21:00,
2013-09-03 19:26:00,70.3,66.9,17.72,East,84,0.0,0.0,89,0.00,,---,0.04,VWS V14.01,2013-09-03 23:26:00,
2013-09-03 19:31:00,70.0,66.9,17.72,East,84,0.0,0.0,90,0.00,,---,0.04,VWS V14.01,2013-09-03 23:31:00,
2013-09-03 19:36:00,69.6,67.2,17.72,East,84,0.0,0.0,92,0.00,,---,0.04,VWS V14.01,2013-09-03 23:36:00,
2013-09-03 19:41:00,69.3,67.2,17.72,East,84,0.0,0.0,93,0.00,,---,0.04,VWS V14.01,2013-09-03 23:41:00,
2013-09-03 19:46:00,69.1,67.0,17.72,East,84,0.0,0.0,93,0.00,,---,0.04,VWS V14.01,2013-09-03 23:46:00,
2013-09-03 19:51:00,68.7,66.9,17.72,East,84,0.0,0.0,94,0.00,,---,0.04,VWS V14.01,2013-09-03 23:51:00,
2013-09-03 19:56:00,68.5,67.1,19.34,East,84,0.0,0.0,95,0.00,,---,0.04,VWS V14.01,2013-09-03 23:56:00,
2013-09-03 20:01:00,68.5,67.1,19.34,East,84,0.0,0.0,95,0.00,,---,0.04,VWS V14.01,2013-09-04 00:01:00,
2013-09-03 20:06:00,68.4,67.2,19.34,East,84,0.0,0.0,96,0.00,,---,0.04,VWS V14.01,2013-09-04 00:06:00,
2013-09-03 20:11:00,68.2,67.3,17.98,East,84,0.0,0.0,97,0.00,,---,0.04,VWS V14.01,2013-09-04 00:11:00,
2013-09-03 20:16:00,68.0,67.4,17.98,East,84,0.0,0.0,98,0.00,,---,0.04,VWS V14.01,2013-09-04 00:16:00,
2013-09-03 20:21:00,67.8,67.2,17.98,East,84,0.0,0.0,98,0.00,,---,0.04,VWS V14.01,2013-09-04 00:21:00,
2013-09-03 20:26:00,67.6,67.1,27.49,East,84,0.0,0.0,98,0.00,,---,0.04,VWS V14.01,2013-09-04 00:26:00,
2013-09-03 20:31:00,67.5,66.9,27.49,East,84,0.0,0.0,98,0.00,,---,0.04,VWS V14.01,2013-09-04 00:31:00,
2013-09-03 20:36:00,67.5,66.9,27.49,East,84,0.0,0.0,98,0.00,,---,0.04,VWS V14.01,2013-09-04 00:36:00,
2013-09-03 20:41:00,67.5,66.9,17.72,East,84,0.0,0.0,98,0.00,,---,0.04,VWS V14.01,2013-09-04 00:41:00,
2013-09-03 20:46:00,67.3,66.7,17.72,East,84,0.0,0.0,98,0.00,,---,0.04,VWS V14.01,2013-09-04 00:46:00,
2013-09-03 20:51:00,67.1,66.5,17.72,East,84,0.0,0.0,98,0.00,,---,0.04,VWS V14.01,2013-09-04 00:51:00,
2013-09-03 20:56:00,67.1,66.5,17.72,East,84,0.0,0.0,98,0.00,,---,0.04,VWS V14.01,2013-09-04 00:56:00,
2013-09-03 21:01:00,66.9,66.3,17.72,East,84,0.0,0.0,98,0.00,,---,0.04,VWS V14.01,2013-09-04 01:01:00,
2013-09-03 21:06:00,66.9,66.3,17.72,East,84,0.0,0.0,98,0.00,,---,0.04,VWS V14.01,2013-09-04 01:06:00,
2013-09-03 21:11:00,66.9,66.3,17.72,East,84,0.0,0.0,98,0.00,,---,0.04,VWS V14.01,2013-09-04 01:11:00,
2013-09-03 21:16:00,66.7,66.2,17.72,East,84,0.0,0.0,98,0.00,,---,0.04,VWS V14.01,2013-09-04 01:16:00,
2013-09-03 21:21:00,66.6,66.0,17.72,East,84,0.0,0.0,98,0.00,,---,0.04,VWS V14.01,2013-09-04 01:21:00,
2013-09-03 21:26:00,66.4,65.8,17.72,East,84,0.0,0.0,98,0.00,,---,0.00,VWS V14.01,2013-09-04 01:26:00,
2013-09-03 21:31:00,66.4,65.8,17.72,East,84,0.0,0.0,98,0.00,,---,0.04,VWS V14.01,2013-09-04 01:31:00,
2013-09-03 21:36:00,66.2,65.6,17.72,East,84,0.0,0.0,98,0.00,,---,0.04,VWS V14.01,2013-09-04 01:36:00,
2013-09-03 21:41:00,66.2,65.6,17.92,East,84,2.7,2.7,98,0.00,,---,0.04,VWS V14.01,2013-09-04 01:41:00,
2013-09-03 21:46:00,66.2,65.6,17.92,East,84,0.0,0.0,98,0.00,,---,0.04,VWS V14.01,2013-09-04 01:46:00,
2013-09-03 21:51:00,66.2,65.6,17.92,East,84,0.0,0.0,98,0.00,,---,0.04,VWS V14.01,2013-09-04 01:51:00,
2013-09-03 21:56:00,66.2,65.6,17.72,East,84,0.0,0.0,98,0.00,,---,0.04,VWS V14.01,2013-09-04 01:56:00,
2013-09-03 22:01:00,66.0,65.4,17.72,East,84,0.0,0.0,98,0.00,,---,0.04,VWS V14.01,2013-09-04 02:01:00,
2013-09-03 22:06:00,66.0,65.4,17.72,East,84,0.0,0.0,98,0.00,,---,0.04,VWS V14.01,2013-09-04 02:06:00,
2013-09-03 22:11:00,65.8,65.3,17.87,East,84,0.0,0.0,98,0.00,,---,0.04,VWS V14.01,2013-09-04 02:11:00,
2013-09-03 22:16:00,65.8,65.3,17.87,East,84,0.0,0.0,98,0.00,,---,0.04,VWS V14.01,2013-09-04 02:16:00,
2013-09-03 22:21:00,65.7,65.1,17.87,East,84,0.0,0.0,98,0.00,,---,0.04,VWS V14.01,2013-09-04 02:21:00,
2013-09-03 22:26:00,65.7,65.1,17.72,East,84,0.0,0.0,98,0.00,,---,0.04,VWS V14.01,2013-09-04 02:26:00,
2013-09-03 22:31:00,65.7,65.1,17.72,East,84,0.0,0.0,98,0.00,,---,0.04,VWS V14.01,2013-09-04 02:31:00,
2013-09-03 22:36:00,65.7,65.1,17.72,East,84,0.0,0.0,98,0.00,,---,0.04,VWS V14.01,2013-09-04 02:36:00,
2013-09-03 22:41:00,65.5,64.9,17.72,East,84,0.0,0.0,98,0.00,,---,0.04,VWS V14.01,2013-09-04 02:41:00,
2013-09-03 22:46:00,65.5,64.9,17.72,East,84,0.0,0.0,98,0.00,,---,0.00,VWS V14.01,2013-09-04 02:46:00,
2013-09-03 22:51:00,65.5,64.9,17.72,East,84,0.0,0.0,98,0.00,,---,0.04,VWS V14.01,2013-09-04 02:51:00,
2013-09-03 22:56:00,65.5,64.9,17.72,East,84,0.0,0.0,98,0.00,,---,0.04,VWS V14.01,2013-09-04 02:56:00,
2013-09-03 23:01:00,65.5,64.9,17.72,East,84,0.0,0.0,98,0.00,,---,0.04,VWS V14.01,2013-09-04 03:01:00,
2013-09-03 23:06:00,65.5,64.9,17.72,East,84,0.0,0.0,98,0.00,,---,0.04,VWS V14.01,2013-09-04 03:06:00,
2013-09-03 23:11:00,65.5,64.9,17.72,East,84,0.0,0.0,98,0.00,,---,0.04,VWS V14.01,2013-09-04 03:11:00,
2013-09-03 23:16:00,65.5,64.9,17.72,NE,55,2.2,2.2,98,0.00,,---,0.04,VWS V14.01,2013-09-04 03:16:00,
2013-09-03 23:21:00,65.5,64.9,17.72,NE,55,0.0,0.0,98,0.00,,---,0.04,VWS V14.01,2013-09-04 03:21:00,
2013-09-03 23:26:00,65.5,64.9,17.72,NE,55,0.0,0.0,98,0.00,,---,0.04,VWS V14.01,2013-09-04 03:26:00,
2013-09-03 23:31:00,65.5,64.9,17.72,NE,55,0.0,0.0,98,0.00,,---,0.04,VWS V14.01,2013-09-04 03:31:00,
2013-09-03 23:36:00,65.3,64.7,17.72,NE,55,3.1,3.1,98,0.00,,---,0.04,VWS V14.01,2013-09-04 03:36:00,
2013-09-03 23:41:00,65.3,64.7,17.72,NE,55,0.0,0.0,98,0.00,,---,0.04,VWS V14.01,2013-09-04 03:41:00,
2013-09-03 23:46:00,65.1,64.5,17.72,NE,55,0.0,0.0,98,0.00,,---,0.00,VWS V14.01,2013-09-04 03:46:00,
2013-09-03 23:51:00,64.9,64.4,17.72,NE,55,0.0,0.0,98,0.00,,---,0.04,VWS V14.01,2013-09-04 03:51:00,
2013-09-03 23:56:00,64.8,64.2,17.72,NE,55,0.0,0.0,98,0.00,,---,0.04,VWS V14.01,2013-09-04 03:56:00,